aviador You're here:

KCOE Decoded Metar

COEUR D'ALENE in ID, USA
Report Time2017-11-25 02:56:00
UTC Time2017-11-25 03:56:42
Flight Rules vfr VFR
Wind180° at 05 kt
W.Decomp.*RWY 20: 3.9 kt HW 3.1 kt LCW
RWY 24: 1.0 kt HW 4.9 kt LCW
W.Rank180° ranks 4
Current wind is below 180° avg. (7.3)
Visibility9999 m
Phenomena:N/A
Clouds:Few 038 Hf
Scattered 100 Hf
Broken 120 Hf
Expected CloudBase > 1,200 ft AGL from Temp-Dew spread
Ceiling12,000 ft
Temp05°C (ISA -5)
Dew Point02°C (81% RH)
AAT1.5°C
QNH1020 hPa
Density Alt1,539 ft
Elevation2,320 ft
Report Wrong Elevation
Raw Report
METAR KCOE 250256Z AUTO 18005KT 10SM FEW038 SCT100 BKN120 05/02 A3011
RMK AO2 SLP229 T00500022 53007=

Extra information for KCOE:More info

Metar Taf Metar & Taf Last 4 Metars F.Rules Stats Wind Profile Meteogram Temp Stats Airport Information Weather charts Add Link Nearby VenuesMetar ALERT Operation Metar Decoded Social comments

AIRNAV info for KCOE